createdAt,value
2018-11-03T00:01:49.543Z,96.80
2018-11-03T00:04:31.349Z,96.80
2018-11-03T00:07:13.159Z,96.90
2018-11-03T00:09:54.444Z,97.00
2018-11-03T00:12:36.903Z,97.10
2018-11-03T00:15:17.937Z,97.00
2018-11-03T00:17:59.911Z,96.90
2018-11-03T00:20:41.312Z,97.00
2018-11-03T00:23:23.192Z,97.30
2018-11-03T00:26:05.666Z,96.70
2018-11-03T00:28:46.779Z,96.40
2018-11-03T00:31:27.848Z,96.10
2018-11-03T00:34:09.539Z,96.00
2018-11-03T00:36:51.828Z,95.60
2018-11-03T00:39:33.975Z,95.70
2018-11-03T00:42:15.354Z,95.80
2018-11-03T00:44:56.992Z,95.80
2018-11-03T00:47:39.975Z,95.90
2018-11-03T00:50:21.501Z,95.60
2018-11-03T00:53:03.643Z,96.10
2018-11-03T00:55:45.316Z,95.80
2018-11-03T00:58:26.394Z,95.90
2018-11-03T01:01:08.816Z,95.80
2018-11-03T01:03:50.672Z,95.80
2018-11-03T01:06:33.108Z,95.60
2018-11-03T01:09:15.230Z,95.70
2018-11-03T01:11:56.589Z,95.00
2018-11-03T01:14:38.155Z,94.60
2018-11-03T01:17:20.467Z,94.10
2018-11-03T01:20:01.567Z,93.20
2018-11-03T01:22:43.745Z,92.90
2018-11-03T01:25:24.817Z,92.80
2018-11-03T01:28:07.225Z,92.40
2018-11-03T01:30:49.529Z,92.50
2018-11-03T01:33:30.632Z,92.40
2018-11-03T01:36:12.196Z,92.30
2018-11-03T01:38:53.695Z,92.40
2018-11-03T01:41:35.404Z,92.50
2018-11-03T01:44:17.591Z,92.50
2018-11-03T01:46:58.911Z,92.40
2018-11-03T01:49:40.706Z,92.40
2018-11-03T01:52:22.139Z,92.20
2018-11-03T01:55:04.702Z,92.20
2018-11-03T01:57:46.670Z,92.00
2018-11-03T02:00:28.343Z,92.00
2018-11-03T02:03:09.927Z,91.90
2018-11-03T02:05:51.925Z,91.80
2018-11-03T02:08:33.104Z,91.50
2018-11-03T02:11:14.954Z,91.20
2018-11-03T02:13:56.197Z,90.70
2018-11-03T02:16:37.791Z,90.30
2018-11-03T02:19:19.563Z,90.20
2018-11-03T02:22:01.256Z,90.40
2018-11-03T02:24:42.841Z,90.40
2018-11-03T02:27:24.456Z,90.50
2018-11-03T02:30:06.121Z,90.70
2018-11-03T02:32:48.018Z,90.70
2018-11-03T02:35:29.435Z,90.90
2018-11-03T02:38:11.112Z,90.80
2018-11-03T02:40:53.184Z,90.70
2018-11-03T02:43:35.503Z,90.80
2018-11-03T02:46:17.002Z,90.80
2018-11-03T02:48:59.392Z,91.30
2018-11-03T02:51:40.879Z,90.90
2018-11-03T02:54:22.674Z,90.50
2018-11-03T02:57:05.120Z,90.90
2018-11-03T02:59:46.260Z,90.90
2018-11-03T03:02:28.772Z,91.10
2018-11-03T03:05:11.179Z,91.10
2018-11-03T03:07:52.729Z,91.00
2018-11-03T03:10:34.172Z,91.10
2018-11-03T03:13:15.740Z,91.20
2018-11-03T03:15:57.957Z,91.00
2018-11-03T03:18:39.649Z,91.00
2018-11-03T03:21:21.429Z,91.10
2018-11-03T03:24:04.996Z,91.10
2018-11-03T03:26:46.453Z,91.10
2018-11-03T03:29:28.850Z,91.00
2018-11-03T03:32:09.766Z,90.80
2018-11-03T03:34:51.960Z,90.90
2018-11-03T03:37:32.856Z,90.90
2018-11-03T03:40:14.596Z,91.00
2018-11-03T03:42:56.107Z,90.90
2018-11-03T03:45:37.592Z,90.80
2018-11-03T03:48:19.468Z,90.80
2018-11-03T03:51:01.320Z,91.10
2018-11-03T03:53:43.521Z,90.50
2018-11-03T03:56:25.257Z,90.50
2018-11-03T03:59:06.075Z,90.50
2018-11-03T04:01:47.464Z,90.40
2018-11-03T04:04:28.997Z,90.40
2018-11-03T04:07:10.822Z,90.10
2018-11-03T04:09:52.589Z,90.20
2018-11-03T04:12:35.026Z,90.20
2018-11-03T04:15:16.808Z,89.90
2018-11-03T04:17:58.514Z,90.00
2018-11-03T04:20:40.329Z,89.80
2018-11-03T04:23:21.781Z,90.10
2018-11-03T04:26:03.324Z,89.30
2018-11-03T04:28:44.860Z,89.40
2018-11-03T04:31:27.048Z,89.10
2018-11-03T04:34:08.040Z,89.10
2018-11-03T04:36:50.053Z,88.80
2018-11-03T04:39:31.886Z,89.10
2018-11-03T04:42:13.108Z,88.90
2018-11-03T04:44:54.707Z,88.70
2018-11-03T04:47:36.670Z,88.70
2018-11-03T04:50:18.159Z,89.00
2018-11-03T04:53:00.080Z,89.30
2018-11-03T04:55:41.378Z,89.30
2018-11-03T04:58:23.026Z,89.40
2018-11-03T05:01:04.737Z,88.90
2018-11-03T05:03:46.699Z,88.80
2018-11-03T05:06:28.407Z,88.80
2018-11-03T05:09:11.155Z,89.30
2018-11-03T05:11:52.932Z,89.50
2018-11-03T05:14:34.456Z,89.70
2018-11-03T05:17:15.887Z,89.60
2018-11-03T05:19:56.882Z,89.60
2018-11-03T05:22:38.932Z,89.10
2018-11-03T05:25:21.212Z,88.70
2018-11-03T05:28:02.660Z,88.80
2018-11-03T05:30:44.164Z,88.20
2018-11-03T05:33:26.710Z,87.80
2018-11-03T05:36:09.929Z,87.60
2018-11-03T05:38:51.352Z,87.20
2018-11-03T05:41:32.950Z,87.00
2018-11-03T05:44:14.951Z,87.70
2018-11-03T05:46:56.336Z,87.00
2018-11-03T05:49:37.517Z,87.30
2018-11-03T05:52:18.999Z,87.60
2018-11-03T05:55:01.204Z,87.70
2018-11-03T05:57:42.661Z,87.90
2018-11-03T06:00:26.770Z,88.00
2018-11-03T06:03:08.445Z,87.90
2018-11-03T06:05:50.902Z,87.60
2018-11-03T06:08:32.053Z,88.40
2018-11-03T06:11:13.316Z,86.90
2018-11-03T06:13:54.297Z,86.90
2018-11-03T06:16:36.050Z,87.10
2018-11-03T06:19:17.601Z,87.30
2018-11-03T06:21:59.382Z,87.30
2018-11-03T06:24:41.039Z,87.50
2018-11-03T06:27:22.214Z,87.60
2018-11-03T06:30:04.126Z,87.80
2018-11-03T06:32:45.698Z,87.70
2018-11-03T06:35:27.629Z,87.80
2018-11-03T06:38:08.783Z,87.60
2018-11-03T06:40:50.153Z,88.60
2018-11-03T06:43:31.484Z,87.90
2018-11-03T06:46:13.129Z,88.20
2018-11-03T06:48:58.250Z,88.30
2018-11-03T06:51:39.689Z,88.40
2018-11-03T06:54:21.824Z,88.50
2018-11-03T06:57:02.896Z,88.60
2018-11-03T06:59:44.659Z,88.30
2018-11-03T07:02:26.168Z,87.70
2018-11-03T07:05:08.532Z,86.00
2018-11-03T07:07:50.022Z,84.60
2018-11-03T07:10:32.058Z,83.00
2018-11-03T07:13:13.793Z,82.50
2018-11-03T07:15:55.607Z,80.10
2018-11-03T07:18:37.428Z,78.30
2018-11-03T07:21:19.023Z,76.70
2018-11-03T07:24:01.927Z,73.80
2018-11-03T07:26:43.328Z,72.80
2018-11-03T07:29:25.057Z,69.30
2018-11-03T07:32:08.062Z,67.00
2018-11-03T07:34:49.342Z,66.00
2018-11-03T07:37:30.184Z,65.50
2018-11-03T07:40:11.889Z,64.10
2018-11-03T07:42:53.194Z,63.70
2018-11-03T07:45:35.643Z,62.10
2018-11-03T07:48:16.999Z,59.90
2018-11-03T07:50:58.939Z,59.10
2018-11-03T07:53:40.799Z,57.90
2018-11-03T07:56:21.708Z,57.50
2018-11-03T07:59:04.061Z,56.10
2018-11-03T08:01:45.328Z,55.00
2018-11-03T08:04:26.782Z,54.00
2018-11-03T08:07:08.392Z,53.00
2018-11-03T08:09:50.631Z,50.50
2018-11-03T08:12:33.102Z,49.70
2018-11-03T08:15:14.055Z,47.40
2018-11-03T08:17:57.072Z,47.80
2018-11-03T08:20:38.612Z,48.90
2018-11-03T08:23:20.513Z,48.40
2018-11-03T08:26:01.640Z,47.00
2018-11-03T08:28:43.944Z,47.10
2018-11-03T08:31:24.848Z,46.60
2018-11-03T08:34:07.248Z,47.80
2018-11-03T08:36:48.933Z,48.40
2018-11-03T08:39:30.475Z,46.60
2018-11-03T08:42:12.537Z,46.10
2018-11-03T08:44:53.589Z,45.80
2018-11-03T08:47:35.454Z,45.80
2018-11-03T08:50:16.641Z,45.40
2018-11-03T08:52:58.988Z,45.30
2018-11-03T08:55:40.140Z,43.80
2018-11-03T08:58:21.953Z,44.50
2018-11-03T09:01:04.199Z,44.60
2018-11-03T09:03:45.551Z,43.50
2018-11-03T09:06:28.033Z,42.40
2018-11-03T09:09:10.499Z,43.10
2018-11-03T09:11:51.842Z,43.40
2018-11-03T09:14:33.052Z,41.60
2018-11-03T09:17:14.616Z,43.20
2018-11-03T09:19:56.195Z,43.50
2018-11-03T09:22:38.851Z,42.10
2018-11-03T09:25:20.414Z,41.40
2018-11-03T09:28:02.197Z,41.50
2018-11-03T09:30:43.593Z,41.60
2018-11-03T09:33:25.178Z,42.10
2018-11-03T09:36:06.961Z,41.00
2018-11-03T09:38:48.484Z,39.10
2018-11-03T09:41:29.944Z,39.20
2018-11-03T09:44:11.657Z,37.60
2018-11-03T09:46:53.090Z,38.50
2018-11-03T09:49:34.921Z,38.10
2018-11-03T09:52:16.120Z,37.90
2018-11-03T09:55:00.742Z,39.00
2018-11-03T09:57:44.259Z,38.40
2018-11-03T10:00:25.047Z,38.70
2018-11-03T10:03:07.009Z,38.10
2018-11-03T10:05:48.848Z,38.00
2018-11-03T10:08:30.329Z,38.00
2018-11-03T10:11:11.159Z,38.40
2018-11-03T10:13:52.250Z,37.20
2018-11-03T10:16:33.100Z,37.70
2018-11-03T10:19:14.140Z,36.90
2018-11-03T10:21:55.794Z,37.60
2018-11-03T10:24:37.030Z,38.80
2018-11-03T10:27:18.490Z,40.10
2018-11-03T10:30:00.125Z,40.00
2018-11-03T10:32:42.166Z,41.10
2018-11-03T10:35:23.426Z,41.70
2018-11-03T10:38:04.876Z,43.30
2018-11-03T10:40:46.408Z,45.10
2018-11-03T10:43:27.992Z,46.70
2018-11-03T10:46:10.645Z,48.70
2018-11-03T10:48:52.368Z,49.20
2018-11-03T10:51:34.318Z,51.20
2018-11-03T10:54:15.906Z,51.70
2018-11-03T10:56:57.495Z,54.30
2018-11-03T10:59:40.082Z,53.80
2018-11-03T11:02:26.210Z,56.30
2018-11-03T11:06:13.713Z,56.90
2018-11-03T11:09:00.082Z,58.30
2018-11-03T11:11:46.182Z,58.20
2018-11-03T11:14:27.007Z,58.10
2018-11-03T11:17:08.519Z,58.20
2018-11-03T11:19:49.949Z,59.70
2018-11-03T11:22:32.142Z,58.80
2018-11-03T11:25:13.891Z,59.00
2018-11-03T11:27:54.942Z,57.10
2018-11-03T11:30:37.039Z,59.00
2018-11-03T11:33:18.537Z,58.80
2018-11-03T11:35:59.627Z,58.90
2018-11-03T11:38:41.313Z,59.80
2018-11-03T11:41:23.201Z,59.80
2018-11-03T11:44:05.990Z,60.40
2018-11-03T11:46:47.605Z,58.60
2018-11-03T11:49:28.659Z,60.50
2018-11-03T11:52:10.599Z,59.80
2018-11-03T11:54:51.823Z,61.40
2018-11-03T11:57:33.219Z,61.40
2018-11-03T12:00:15.760Z,60.60
2018-11-03T12:02:57.776Z,60.30
2018-11-03T12:05:38.918Z,61.50
2018-11-03T12:08:21.440Z,61.30
2018-11-03T12:11:02.494Z,61.30
2018-11-03T12:13:44.115Z,61.40
2018-11-03T12:16:26.415Z,61.40
2018-11-03T12:19:08.620Z,61.60
2018-11-03T12:21:57.472Z,62.70
2018-11-03T12:24:40.350Z,60.90
2018-11-03T12:27:21.780Z,60.40
2018-11-03T12:30:03.630Z,60.30
2018-11-03T12:32:45.750Z,60.80
2018-11-03T12:35:26.830Z,60.60
2018-11-03T12:38:07.823Z,61.20
2018-11-03T12:40:50.359Z,60.70
2018-11-03T12:43:32.210Z,59.90
2018-11-03T12:46:14.679Z,59.50
2018-11-03T12:48:57.023Z,61.20
2018-11-03T12:51:38.456Z,60.50
2018-11-03T12:54:20.327Z,60.90
2018-11-03T12:57:01.687Z,60.80
2018-11-03T12:59:43.018Z,60.10
2018-11-03T13:02:24.776Z,60.00
2018-11-03T13:05:08.030Z,61.30
2018-11-03T13:07:49.783Z,60.60
2018-11-03T13:10:31.377Z,60.20
2018-11-03T13:13:13.824Z,61.50
2018-11-03T13:15:56.844Z,61.40
2018-11-03T13:18:39.319Z,62.10
2018-11-03T13:21:20.009Z,63.20
2018-11-03T13:24:01.887Z,62.40
2018-11-03T13:26:43.173Z,61.30
2018-11-03T13:29:24.790Z,62.00
2018-11-03T13:32:06.641Z,62.10
2018-11-03T13:34:48.013Z,62.80
2018-11-03T13:37:29.409Z,63.30
2018-11-03T13:40:12.661Z,62.80
2018-11-03T13:42:54.376Z,60.70
2018-11-03T13:45:36.129Z,60.10
2018-11-03T13:48:17.274Z,61.10
2018-11-03T13:50:58.086Z,60.20
2018-11-03T13:53:39.499Z,59.70
2018-11-03T13:56:20.846Z,58.70
2018-11-03T13:59:02.081Z,57.70
2018-11-03T14:01:43.733Z,55.60
2018-11-03T14:04:25.214Z,54.20
2018-11-03T14:07:06.771Z,53.40
2018-11-03T14:09:49.216Z,52.30
2018-11-03T14:12:30.475Z,52.50
2018-11-03T14:15:13.351Z,52.10
2018-11-03T14:17:54.567Z,52.40
2018-11-03T14:20:36.025Z,52.90
2018-11-03T14:23:16.611Z,52.50
2018-11-03T14:25:58.739Z,51.20
2018-11-03T14:28:40.020Z,51.30
2018-11-03T14:31:21.527Z,51.20
2018-11-03T14:36:51.135Z,50.10
2018-11-03T14:39:32.740Z,51.00
2018-11-03T14:42:14.347Z,51.50
2018-11-03T14:44:55.878Z,53.10
2018-11-03T14:47:36.763Z,55.10
2018-11-03T14:50:17.753Z,57.10
2018-11-03T14:53:00.142Z,60.20
2018-11-03T14:55:42.172Z,60.50
2018-11-03T14:58:23.419Z,62.00
2018-11-03T15:01:04.393Z,62.40
2018-11-03T15:03:46.292Z,62.70
2018-11-03T15:06:28.905Z,63.40
2018-11-03T15:09:11.010Z,64.50
2018-11-03T15:11:53.161Z,65.50
2018-11-03T15:14:35.554Z,67.60
2018-11-03T15:17:18.356Z,69.20
2018-11-03T15:19:59.853Z,70.10
2018-11-03T15:22:42.391Z,72.50
2018-11-03T15:25:24.153Z,73.40
2018-11-03T15:28:06.076Z,73.80
2018-11-03T15:30:48.514Z,74.90
2018-11-03T15:33:30.626Z,75.00
2018-11-03T15:36:12.420Z,75.80
2018-11-03T15:38:54.684Z,77.00
2018-11-03T15:41:35.625Z,78.00
2018-11-03T15:44:22.637Z,79.40
2018-11-03T15:47:05.575Z,80.20
2018-11-03T15:49:47.386Z,80.00
2018-11-03T15:52:29.633Z,80.30
2018-11-03T15:55:11.164Z,81.50
2018-11-03T15:57:53.527Z,81.70
2018-11-03T16:00:35.727Z,82.90
2018-11-03T16:03:17.563Z,83.70
2018-11-03T16:05:59.505Z,84.40
2018-11-03T16:08:41.113Z,85.20
2018-11-03T16:11:23.007Z,86.20
2018-11-03T16:14:04.598Z,86.70
2018-11-03T16:16:46.342Z,87.80
2018-11-03T16:19:28.310Z,88.50
2018-11-03T16:22:09.680Z,89.50
2018-11-03T16:24:51.624Z,90.10
2018-11-03T16:27:36.123Z,90.40
2018-11-03T16:30:18.356Z,90.70
2018-11-03T16:33:00.127Z,91.10
2018-11-03T16:35:41.592Z,91.50
2018-11-03T16:38:23.379Z,91.80
2018-11-03T16:41:04.993Z,91.90
2018-11-03T16:43:46.828Z,92.40
2018-11-03T16:46:28.577Z,92.60
2018-11-03T16:49:10.720Z,93.30
2018-11-03T16:51:51.812Z,93.60
2018-11-03T16:54:34.472Z,93.90
2018-11-03T16:57:16.523Z,94.10
2018-11-03T16:59:57.751Z,94.10
2018-11-03T17:02:39.378Z,94.40
2018-11-03T17:05:21.018Z,94.70
2018-11-03T17:08:02.659Z,95.00
2018-11-03T17:10:44.369Z,95.20
2018-11-03T17:13:25.997Z,95.10
2018-11-03T17:16:08.073Z,95.00
2018-11-03T17:18:50.822Z,93.00
2018-11-03T17:21:31.769Z,91.80
2018-11-03T17:24:13.478Z,90.60
2018-11-03T17:26:55.289Z,87.30
2018-11-03T17:29:37.391Z,85.70
2018-11-03T17:32:19.597Z,83.70
2018-11-03T17:35:01.302Z,82.20
2018-11-03T17:37:43.463Z,80.80
2018-11-03T17:40:24.607Z,80.30
2018-11-03T17:43:06.016Z,79.90
2018-11-03T17:45:47.693Z,79.90
2018-11-03T17:48:29.746Z,79.70
2018-11-03T17:51:11.271Z,79.10
2018-11-03T17:53:52.876Z,79.60
2018-11-03T17:56:33.708Z,79.00
2018-11-03T17:59:14.403Z,77.80
2018-11-03T18:01:56.116Z,78.00
2018-11-03T18:04:38.435Z,77.60
2018-11-03T18:07:19.356Z,77.00
2018-11-03T18:10:00.987Z,76.60
2018-11-03T18:12:43.243Z,77.40
2018-11-03T18:15:24.419Z,76.40
2018-11-03T18:18:05.945Z,76.10
2018-11-03T18:20:47.968Z,75.70
2018-11-03T18:23:30.526Z,75.60
2018-11-03T18:26:11.731Z,75.10
2018-11-03T18:28:53.185Z,74.70
2018-11-03T18:31:34.305Z,74.60
2018-11-03T18:34:17.231Z,73.60
2018-11-03T18:36:59.583Z,73.60
2018-11-03T18:39:41.362Z,72.30
2018-11-03T18:42:23.818Z,71.80
2018-11-03T18:45:05.599Z,71.10
2018-11-03T18:47:47.053Z,70.70
2018-11-03T18:50:28.575Z,68.70
2018-11-03T18:53:10.127Z,68.50
2018-11-03T18:55:51.686Z,67.80
2018-11-03T18:58:33.917Z,66.80
2018-11-03T19:01:15.093Z,66.10
2018-11-03T19:03:56.110Z,66.10
2018-11-03T19:06:38.164Z,65.70
2018-11-03T19:09:19.311Z,65.40
2018-11-03T19:12:00.768Z,64.90
2018-11-03T19:14:41.528Z,65.10
2018-11-03T19:17:23.275Z,64.80
2018-11-03T19:20:04.758Z,65.30
2018-11-03T19:22:46.898Z,65.70
2018-11-03T19:25:27.955Z,66.00
2018-11-03T19:28:09.487Z,66.90
2018-11-03T19:30:50.092Z,67.00
2018-11-03T19:33:31.477Z,67.00
2018-11-03T19:36:13.064Z,67.20
2018-11-03T19:38:54.141Z,66.50
2018-11-03T19:41:36.453Z,67.20
2018-11-03T19:44:17.662Z,67.20
2018-11-03T19:46:59.224Z,66.20
2018-11-03T19:49:40.214Z,66.10
2018-11-03T19:52:21.542Z,65.10
2018-11-03T19:55:02.595Z,65.70
2018-11-03T19:57:44.168Z,66.80
2018-11-03T20:00:25.681Z,68.30
2018-11-03T20:03:07.493Z,67.50
2018-11-03T20:05:48.953Z,67.60
2018-11-03T20:08:30.950Z,67.70
2018-11-03T20:11:13.138Z,68.10
2018-11-03T20:13:54.553Z,69.60
2018-11-03T20:16:41.496Z,70.30
2018-11-03T20:19:23.209Z,70.30
2018-11-03T20:22:04.809Z,71.30
2018-11-03T20:24:45.745Z,71.30
2018-11-03T20:27:27.541Z,70.30
2018-11-03T20:30:09.923Z,68.50
2018-11-03T20:32:51.779Z,65.60
2018-11-03T20:35:34.140Z,65.30
2018-11-03T20:38:16.316Z,65.60
2018-11-03T20:40:58.633Z,66.10
2018-11-03T20:43:41.409Z,64.20
2018-11-03T20:46:23.027Z,63.60
2018-11-03T20:49:05.095Z,63.60
2018-11-03T20:51:46.299Z,63.30
2018-11-03T20:54:27.739Z,63.40
2018-11-03T20:57:09.250Z,63.70
2018-11-03T20:59:50.807Z,63.90
2018-11-03T21:02:32.237Z,64.30
2018-11-03T21:05:14.521Z,64.60
2018-11-03T21:07:55.730Z,64.40
2018-11-03T21:10:37.224Z,63.90
2018-11-03T21:13:19.453Z,63.80
2018-11-03T21:16:00.809Z,64.30
2018-11-03T21:18:43.274Z,64.70
2018-11-03T21:21:24.575Z,65.50
2018-11-03T21:24:06.307Z,65.00
2018-11-03T21:26:48.161Z,64.90
2018-11-03T21:29:30.113Z,64.10
2018-11-03T21:32:11.977Z,65.40
2018-11-03T21:34:53.418Z,64.50
2018-11-03T21:37:35.144Z,64.80
2018-11-03T21:40:16.706Z,65.70
2018-11-03T21:42:59.106Z,65.70
2018-11-03T21:45:40.851Z,66.60
2018-11-03T21:48:23.122Z,68.60
2018-11-03T21:51:04.100Z,66.90
2018-11-03T21:53:45.942Z,67.50
2018-11-03T21:56:27.688Z,68.20
2018-11-03T21:59:08.966Z,68.60
2018-11-03T22:01:50.843Z,68.70
2018-11-03T22:04:31.536Z,68.60
2018-11-03T22:07:12.536Z,68.60
2018-11-03T22:09:53.386Z,68.70
2018-11-03T22:12:34.629Z,68.80
2018-11-03T22:15:15.670Z,67.10
2018-11-03T22:17:57.806Z,65.60
2018-11-03T22:20:38.744Z,64.60
2018-11-03T22:23:20.162Z,64.20
2018-11-03T22:26:01.927Z,63.00
2018-11-03T22:28:43.652Z,61.80
2018-11-03T22:31:24.925Z,61.90
2018-11-03T22:34:06.545Z,61.00
2018-11-03T22:36:48.518Z,61.60
2018-11-03T22:39:30.500Z,62.40
2018-11-03T22:42:11.900Z,63.10
2018-11-03T22:44:53.554Z,64.30
2018-11-03T22:47:35.198Z,65.40
2018-11-03T22:50:17.184Z,65.20
2018-11-03T22:52:58.476Z,65.30
2018-11-03T22:55:39.947Z,66.30
2018-11-03T22:58:21.839Z,67.60
2018-11-03T23:01:03.356Z,68.30
2018-11-03T23:03:45.024Z,68.40
2018-11-03T23:06:26.533Z,69.20
2018-11-03T23:09:09.225Z,69.60
2018-11-03T23:11:51.621Z,71.30
2018-11-03T23:14:32.507Z,70.40
2018-11-03T23:17:14.605Z,70.80
2018-11-03T23:19:56.766Z,71.20
2018-11-03T23:22:38.601Z,71.20
2018-11-03T23:25:20.707Z,72.10
2018-11-03T23:28:01.876Z,72.20
2018-11-03T23:30:43.886Z,72.10
2018-11-03T23:33:24.933Z,72.00
2018-11-03T23:36:06.460Z,73.20
2018-11-03T23:38:47.991Z,73.10
2018-11-03T23:41:29.727Z,73.80
2018-11-03T23:44:11.264Z,74.30
2018-11-03T23:46:52.915Z,74.40
2018-11-03T23:49:34.586Z,74.60
2018-11-03T23:52:18.867Z,74.80
2018-11-03T23:55:00.079Z,75.30
2018-11-03T23:57:41.718Z,75.60
